createdAt,value
2022-11-27T00:00:07.161Z,25.30
2022-11-27T00:02:40.900Z,28.52
2022-11-27T00:05:08.860Z,23.58
2022-11-27T00:07:35.947Z,26.48
2022-11-27T00:10:03.835Z,21.75
2022-11-27T00:12:31.217Z,27.37
2022-11-27T00:14:58.390Z,27.70
2022-11-27T00:17:25.432Z,24.58
2022-11-27T00:19:52.927Z,25.45
2022-11-27T00:22:19.909Z,22.40
2022-11-27T00:24:46.936Z,21.87
2022-11-27T00:27:14.233Z,21.85
2022-11-27T00:29:41.405Z,23.10
2022-11-27T00:32:08.510Z,22.25
2022-11-27T00:34:36.018Z,25.45
2022-11-27T00:37:03.046Z,24.45
2022-11-27T00:39:30.095Z,28.75
2022-11-27T00:41:57.379Z,26.37
2022-11-27T00:44:24.368Z,25.30
2022-11-27T00:46:51.558Z,21.02
2022-11-27T00:49:18.896Z,26.60
2022-11-27T00:51:45.847Z,20.92
2022-11-27T00:54:12.854Z,23.30
2022-11-27T00:56:40.365Z,25.45
2022-11-27T00:59:07.782Z,22.05
2022-11-27T01:01:37.309Z,29.35
2022-11-27T01:04:07.554Z,24.40
2022-11-27T01:06:34.873Z,26.95
2022-11-27T01:09:01.843Z,31.10
2022-11-27T01:11:31.356Z,23.25
2022-11-27T01:14:00.725Z,27.20
2022-11-27T01:16:29.482Z,30.98
2022-11-27T01:18:58.277Z,27.00
2022-11-27T01:21:27.456Z,28.10
2022-11-27T01:23:54.796Z,24.20
2022-11-27T01:26:22.675Z,28.60
2022-11-27T01:28:52.792Z,27.77
2022-11-27T01:31:23.031Z,23.27
2022-11-27T01:33:56.854Z,27.75
2022-11-27T01:36:24.633Z,26.33
2022-11-27T01:38:51.897Z,23.77
2022-11-27T01:41:27.477Z,25.77
2022-11-27T01:44:23.755Z,28.42
2022-11-27T01:46:53.922Z,28.83
2022-11-27T01:49:23.208Z,25.55
2022-11-27T01:51:59.795Z,26.23
2022-11-27T01:54:39.246Z,26.55
2022-11-27T01:57:16.604Z,25.33
2022-11-27T01:59:45.031Z,25.75
2022-11-27T02:02:12.100Z,28.02
2022-11-27T02:04:39.631Z,31.12
2022-11-27T02:07:07.211Z,26.70
2022-11-27T02:09:34.612Z,30.02
2022-11-27T02:12:10.439Z,30.27
2022-11-27T02:14:47.706Z,29.95
2022-11-27T02:17:40.827Z,28.30
2022-11-27T02:20:26.566Z,30.65
2022-11-27T02:23:17.766Z,27.87
2022-11-27T02:26:09.884Z,29.50
2022-11-27T02:29:01.952Z,28.80
2022-11-27T02:31:31.965Z,30.60
2022-11-27T02:34:06.698Z,29.70
2022-11-27T02:36:35.523Z,29.35
2022-11-27T02:39:07.176Z,28.20
2022-11-27T02:41:51.291Z,32.67
2022-11-27T02:44:18.726Z,27.13
2022-11-27T02:46:46.845Z,24.98
2022-11-27T02:49:17.185Z,26.67
2022-11-27T02:51:48.206Z,26.10
2022-11-27T02:54:20.151Z,27.33
2022-11-27T02:56:48.236Z,25.20
2022-11-27T02:59:16.615Z,26.98
2022-11-27T03:01:46.425Z,31.10
2022-11-27T03:04:18.810Z,28.67
2022-11-27T03:06:54.859Z,29.80
2022-11-27T03:09:44.135Z,30.00
2022-11-27T03:12:12.639Z,30.23
2022-11-27T03:14:41.954Z,27.08
2022-11-27T03:17:20.913Z,33.38
2022-11-27T03:20:01.316Z,28.85
2022-11-27T03:22:31.609Z,30.02
2022-11-27T03:24:59.110Z,32.92
2022-11-27T03:27:31.077Z,36.40
2022-11-27T03:30:01.054Z,32.25
2022-11-27T03:32:29.181Z,29.83
2022-11-27T03:34:56.370Z,30.70
2022-11-27T03:37:24.084Z,32.65
2022-11-27T03:39:51.335Z,33.85
2022-11-27T03:42:31.286Z,28.77
2022-11-27T03:45:05.584Z,34.42
2022-11-27T03:47:54.203Z,31.02
2022-11-27T03:50:36.792Z,31.48
2022-11-27T03:53:34.392Z,31.12
2022-11-27T03:56:10.053Z,31.45
2022-11-27T03:58:50.317Z,30.70
2022-11-27T04:01:20.193Z,31.73
2022-11-27T04:03:47.709Z,32.30
2022-11-27T04:06:15.124Z,33.65
2022-11-27T04:08:42.528Z,31.20
2022-11-27T04:11:09.819Z,30.33
2022-11-27T04:13:37.163Z,28.92
2022-11-27T04:16:04.786Z,34.70
2022-11-27T04:18:32.122Z,33.85
2022-11-27T04:20:59.307Z,29.58
2022-11-27T04:23:26.311Z,29.30
2022-11-27T04:25:53.663Z,31.90
2022-11-27T04:28:20.735Z,29.98
2022-11-27T04:30:51.963Z,32.30
2022-11-27T04:33:19.360Z,27.77
2022-11-27T04:35:46.340Z,28.23
2022-11-27T04:38:13.374Z,28.92
2022-11-27T04:40:40.720Z,32.85
2022-11-27T04:43:07.704Z,30.73
2022-11-27T04:45:34.792Z,36.95
2022-11-27T04:48:02.089Z,35.42
2022-11-27T04:50:29.887Z,37.80
2022-11-27T04:52:57.058Z,33.63
2022-11-27T04:55:24.332Z,30.60
2022-11-27T04:57:53.887Z,29.70
2022-11-27T05:00:21.487Z,25.80
2022-11-27T05:02:48.804Z,28.05
2022-11-27T05:05:17.204Z,27.80
2022-11-27T05:07:44.337Z,32.08
2022-11-27T05:10:11.869Z,29.10
2022-11-27T05:12:39.019Z,29.33
2022-11-27T05:15:06.871Z,30.10
2022-11-27T05:17:34.143Z,27.40
2022-11-27T05:20:01.119Z,27.50
2022-11-27T05:22:28.176Z,33.33
2022-11-27T05:24:55.484Z,27.77
2022-11-27T05:27:22.487Z,46.42
2022-11-27T05:29:49.679Z,59.28
2022-11-27T05:32:16.983Z,89.07
2022-11-27T05:34:43.994Z,136.20
2022-11-27T05:37:17.907Z,97.62
2022-11-27T05:39:46.794Z,91.45
2022-11-27T05:42:13.843Z,80.28
2022-11-27T05:44:41.027Z,66.15
2022-11-27T05:47:08.579Z,63.97
2022-11-27T05:49:35.702Z,28.52
2022-11-27T05:52:02.689Z,30.60
2022-11-27T05:54:29.966Z,27.30
2022-11-27T05:56:56.947Z,30.70
2022-11-27T05:59:24.028Z,28.75
2022-11-27T06:01:51.392Z,26.33
2022-11-27T06:04:19.086Z,28.00
2022-11-27T06:06:46.088Z,53.80
2022-11-27T06:09:13.729Z,56.08
2022-11-27T06:11:42.206Z,90.05
2022-11-27T06:14:10.207Z,115.90
2022-11-27T06:16:37.666Z,69.93
2022-11-27T06:19:05.076Z,85.10
2022-11-27T06:21:32.088Z,100.47
2022-11-27T06:23:59.229Z,124.12
2022-11-27T06:26:29.246Z,284.08
2022-11-27T06:28:57.963Z,208.68
2022-11-27T06:31:28.076Z,217.73
2022-11-27T06:33:56.053Z,206.80
2022-11-27T06:36:26.713Z,190.23
2022-11-27T06:38:53.697Z,80.75
2022-11-27T06:41:22.882Z,118.00
2022-11-27T06:43:49.884Z,79.53
2022-11-27T06:46:19.073Z,50.30
2022-11-27T06:48:50.133Z,39.55
2022-11-27T06:51:27.663Z,43.33
2022-11-27T06:53:55.461Z,80.70
2022-11-27T06:56:27.361Z,46.03
2022-11-27T06:58:56.986Z,49.92
2022-11-27T07:01:25.791Z,50.12
2022-11-27T07:03:53.064Z,48.13
2022-11-27T07:06:22.342Z,46.35
2022-11-27T07:08:49.682Z,49.92
2022-11-27T07:11:19.378Z,51.15
2022-11-27T07:13:47.795Z,58.30
2022-11-27T07:16:15.738Z,63.72
2022-11-27T07:18:48.949Z,66.37
2022-11-27T07:21:16.655Z,75.87
2022-11-27T07:23:45.051Z,63.40
2022-11-27T07:26:13.371Z,53.13
2022-11-27T07:28:43.765Z,68.47
2022-11-27T07:31:12.631Z,62.88
2022-11-27T07:33:39.966Z,71.43
2022-11-27T07:36:11.056Z,68.37
2022-11-27T07:38:38.434Z,77.55
2022-11-27T07:41:06.374Z,76.62
2022-11-27T07:43:34.775Z,74.22
2022-11-27T07:46:11.073Z,71.57
2022-11-27T07:48:39.263Z,79.60
2022-11-27T07:51:10.424Z,64.03
2022-11-27T07:53:38.626Z,57.62
2022-11-27T07:56:07.628Z,59.65
2022-11-27T07:58:34.842Z,64.05
2022-11-27T08:01:05.590Z,58.90
2022-11-27T08:03:32.891Z,63.42
2022-11-27T08:05:59.893Z,60.55
2022-11-27T08:08:26.888Z,58.87
2022-11-27T08:10:54.170Z,56.80
2022-11-27T08:13:21.179Z,60.10
2022-11-27T08:15:48.407Z,53.70
2022-11-27T08:18:15.731Z,56.37
2022-11-27T08:20:42.766Z,53.75
2022-11-27T08:23:09.843Z,52.33
2022-11-27T08:25:38.142Z,53.70
2022-11-27T08:28:05.153Z,53.83
2022-11-27T08:30:32.202Z,50.72
2022-11-27T08:32:59.499Z,44.78
2022-11-27T08:35:27.908Z,41.28
2022-11-27T08:37:55.099Z,47.95
2022-11-27T08:40:22.404Z,41.75
2022-11-27T08:42:49.447Z,45.05
2022-11-27T08:45:19.167Z,42.80
2022-11-27T08:47:46.428Z,40.63
2022-11-27T08:50:13.397Z,51.55
2022-11-27T08:52:40.404Z,43.55
2022-11-27T08:55:08.195Z,43.92
2022-11-27T08:57:36.237Z,44.97
2022-11-27T09:00:04.407Z,41.80
2022-11-27T09:02:31.698Z,49.90
2022-11-27T09:04:58.672Z,44.85
2022-11-27T09:07:25.939Z,42.65
2022-11-27T09:09:53.217Z,43.45
2022-11-27T09:12:20.216Z,42.42
2022-11-27T09:14:47.214Z,41.45
2022-11-27T09:17:14.540Z,55.95
2022-11-27T09:19:41.539Z,39.97
2022-11-27T09:22:08.553Z,45.20
2022-11-27T09:24:36.775Z,43.05
2022-11-27T09:27:03.805Z,44.55
2022-11-27T09:29:30.807Z,47.72
2022-11-27T09:31:58.127Z,43.58
2022-11-27T09:34:25.120Z,45.25
2022-11-27T09:36:52.208Z,42.28
2022-11-27T09:39:20.189Z,37.90
2022-11-27T09:41:49.329Z,39.20
2022-11-27T09:44:43.551Z,39.22
2022-11-27T09:47:26.110Z,33.85
2022-11-27T09:50:02.006Z,37.17
2022-11-27T09:52:40.277Z,38.03
2022-11-27T09:55:15.268Z,45.50
2022-11-27T09:57:42.840Z,32.72
2022-11-27T10:00:19.201Z,38.78
2022-11-27T10:02:46.872Z,36.40
2022-11-27T10:05:23.671Z,36.90
2022-11-27T10:08:07.284Z,39.70
2022-11-27T10:10:44.813Z,35.97
2022-11-27T10:13:12.085Z,43.00
2022-11-27T10:15:39.003Z,35.10
2022-11-27T10:18:14.450Z,38.92
2022-11-27T10:20:46.984Z,33.50
2022-11-27T10:23:41.841Z,32.90
2022-11-27T10:26:19.010Z,42.97
2022-11-27T10:29:09.609Z,36.92
2022-11-27T10:32:54.249Z,37.28
2022-11-27T10:35:17.537Z,37.10
2022-11-27T10:38:06.333Z,28.35
2022-11-27T10:40:36.592Z,31.17
2022-11-27T10:43:10.616Z,31.00
2022-11-27T10:45:46.286Z,32.22
2022-11-27T10:48:14.336Z,35.15
2022-11-27T10:50:42.126Z,32.60
2022-11-27T10:53:18.827Z,29.73
2022-11-27T10:55:52.129Z,32.83
2022-11-27T10:58:33.668Z,33.67
2022-11-27T11:01:12.159Z,33.55
2022-11-27T11:03:39.488Z,35.38
2022-11-27T11:06:20.608Z,32.40
2022-11-27T11:08:49.332Z,33.22
2022-11-27T11:11:25.779Z,28.33
2022-11-27T11:13:52.864Z,32.65
2022-11-27T11:16:29.436Z,34.95
2022-11-27T11:19:01.028Z,32.65
2022-11-27T11:21:42.508Z,38.35
2022-11-27T11:24:25.890Z,36.65
2022-11-27T11:26:59.250Z,46.80
2022-11-27T11:29:31.216Z,44.20
2022-11-27T11:32:05.796Z,39.22
2022-11-27T11:34:33.111Z,41.50
2022-11-27T11:37:05.896Z,37.72
2022-11-27T11:39:45.675Z,37.67
2022-11-27T11:42:21.817Z,45.92
2022-11-27T11:45:02.337Z,56.28
2022-11-27T11:47:32.291Z,42.50
2022-11-27T11:50:01.640Z,47.13
2022-11-27T11:52:41.610Z,51.85
2022-11-27T11:55:20.485Z,45.92
2022-11-27T11:57:47.392Z,46.25
2022-11-27T12:00:17.506Z,56.33
2022-11-27T12:03:15.439Z,58.20
2022-11-27T12:06:06.311Z,56.50
2022-11-27T12:08:50.380Z,54.20
2022-11-27T12:11:33.039Z,51.40
2022-11-27T12:14:07.105Z,50.65
2022-11-27T12:16:48.555Z,52.50
2022-11-27T12:19:25.039Z,57.05
2022-11-27T12:22:37.336Z,59.38
2022-11-27T12:25:41.614Z,58.45
2022-11-27T12:28:39.056Z,53.90
2022-11-27T12:31:42.079Z,52.30
2022-11-27T12:34:11.816Z,63.15
2022-11-27T12:36:41.916Z,53.85
2022-11-27T12:39:23.714Z,53.75
2022-11-27T12:42:21.621Z,53.97
2022-11-27T12:45:23.777Z,59.78
2022-11-27T12:48:02.498Z,58.40
2022-11-27T12:50:30.223Z,61.88
2022-11-27T12:53:02.771Z,59.45
2022-11-27T12:55:31.130Z,50.33
2022-11-27T12:58:06.010Z,52.53
2022-11-27T13:00:36.857Z,62.53
2022-11-27T13:03:26.686Z,61.55
2022-11-27T13:05:57.068Z,55.80
2022-11-27T13:08:39.538Z,51.90
2022-11-27T13:11:11.628Z,55.35
2022-11-27T13:13:51.650Z,45.15
2022-11-27T13:16:35.265Z,53.15
2022-11-27T13:19:25.284Z,53.28
2022-11-27T13:21:53.264Z,50.58
2022-11-27T13:24:21.214Z,45.90
2022-11-27T13:27:14.529Z,40.25
2022-11-27T13:29:49.270Z,37.55
2022-11-27T13:32:27.707Z,35.40
2022-11-27T13:35:01.613Z,35.83
2022-11-27T13:37:40.051Z,30.90
2022-11-27T13:40:19.603Z,32.10
2022-11-27T13:42:49.718Z,28.95
2022-11-27T13:45:29.201Z,30.05
2022-11-27T13:47:57.480Z,33.55
2022-11-27T13:50:30.840Z,33.97
2022-11-27T13:53:04.394Z,50.55
2022-11-27T13:55:38.555Z,46.97
2022-11-27T13:58:06.834Z,44.22
2022-11-27T14:00:45.176Z,45.30
2022-11-27T14:03:24.273Z,52.88
2022-11-27T14:05:51.355Z,57.53
2022-11-27T14:08:34.096Z,49.90
2022-11-27T14:11:04.678Z,49.13
2022-11-27T14:13:44.096Z,61.65
2022-11-27T14:16:28.089Z,56.17
2022-11-27T14:18:58.938Z,55.30
2022-11-27T14:21:31.061Z,62.55
2022-11-27T14:24:00.581Z,56.03
2022-11-27T14:26:27.632Z,64.22
2022-11-27T14:28:55.818Z,63.80
2022-11-27T14:31:31.577Z,64.18
2022-11-27T14:34:15.623Z,61.55
2022-11-27T14:36:45.416Z,60.63
2022-11-27T14:39:44.862Z,56.92
2022-11-27T14:42:28.132Z,61.60
2022-11-27T14:45:13.112Z,63.30
2022-11-27T14:47:47.631Z,66.70
2022-11-27T14:50:14.787Z,72.22
2022-11-27T14:52:44.816Z,60.45
2022-11-27T14:55:20.826Z,66.95
2022-11-27T14:57:49.661Z,65.45
2022-11-27T15:00:21.868Z,72.53
2022-11-27T15:02:50.463Z,60.85
2022-11-27T15:05:28.856Z,69.35
2022-11-27T15:07:57.998Z,68.22
2022-11-27T15:10:33.324Z,64.95
2022-11-27T15:13:02.006Z,61.37
2022-11-27T15:15:34.688Z,73.87
2022-11-27T15:18:05.625Z,81.65
2022-11-27T15:20:43.779Z,94.95
2022-11-27T15:23:29.683Z,85.43
2022-11-27T15:25:59.696Z,70.47
2022-11-27T15:28:33.947Z,58.08
2022-11-27T15:31:02.126Z,59.90
2022-11-27T15:33:31.638Z,68.50
2022-11-27T15:36:19.936Z,82.12
2022-11-27T15:38:47.783Z,78.97
2022-11-27T15:41:43.596Z,74.00
2022-11-27T15:44:11.087Z,64.55
2022-11-27T15:46:38.058Z,70.87
2022-11-27T15:49:17.171Z,71.05
2022-11-27T15:51:44.511Z,69.20
2022-11-27T15:54:11.467Z,74.00
2022-11-27T15:56:38.448Z,84.20
2022-11-27T15:59:06.023Z,95.10
2022-11-27T16:01:33.078Z,82.47
2022-11-27T16:04:00.493Z,70.55
2022-11-27T16:06:27.487Z,90.80
2022-11-27T16:08:59.716Z,110.18
2022-11-27T16:11:29.683Z,109.82
2022-11-27T16:13:56.950Z,86.32
2022-11-27T16:16:24.303Z,75.43
2022-11-27T16:18:51.667Z,78.45
2022-11-27T16:21:18.868Z,81.82
2022-11-27T16:23:45.907Z,115.35
2022-11-27T16:26:14.754Z,106.55
2022-11-27T16:28:41.905Z,172.55
2022-11-27T16:31:11.502Z,130.90
2022-11-27T16:33:38.923Z,135.52
2022-11-27T16:36:10.790Z,102.45
2022-11-27T16:38:41.986Z,81.57
2022-11-27T16:41:19.335Z,87.75
2022-11-27T16:43:48.822Z,121.87
2022-11-27T16:46:26.314Z,97.93
2022-11-27T16:48:54.363Z,100.47
2022-11-27T16:51:24.704Z,99.60
2022-11-27T16:53:53.771Z,172.93
2022-11-27T16:56:24.003Z,102.87
2022-11-27T16:58:56.725Z,115.47
2022-11-27T17:01:32.021Z,53.92
2022-11-27T17:04:04.682Z,59.40
2022-11-27T17:06:33.144Z,54.55
2022-11-27T17:09:01.729Z,56.85
2022-11-27T17:11:33.618Z,51.53
2022-11-27T17:14:06.489Z,53.70
2022-11-27T17:16:34.237Z,54.90
2022-11-27T17:19:03.698Z,47.75
2022-11-27T17:21:33.790Z,58.55
2022-11-27T17:24:04.621Z,53.13
2022-11-27T17:26:34.789Z,58.00
2022-11-27T17:29:03.456Z,62.28
2022-11-27T17:31:32.750Z,57.58
2022-11-27T17:34:01.322Z,59.78
2022-11-27T17:36:33.737Z,74.30
2022-11-27T17:39:05.091Z,60.12
2022-11-27T17:41:32.150Z,66.03
2022-11-27T17:43:59.210Z,63.00
2022-11-27T17:46:28.413Z,72.28
2022-11-27T17:48:59.013Z,79.28
2022-11-27T17:51:27.934Z,54.13
2022-11-27T17:53:55.120Z,61.25
2022-11-27T17:56:23.539Z,58.72
2022-11-27T17:58:50.848Z,67.95
2022-11-27T18:01:23.684Z,56.20
2022-11-27T18:03:54.005Z,57.40
2022-11-27T18:06:22.709Z,52.80
2022-11-27T18:08:50.047Z,56.50
2022-11-27T18:11:21.491Z,70.62
2022-11-27T18:13:49.202Z,70.03
2022-11-27T18:16:37.234Z,60.92
2022-11-27T18:19:06.967Z,75.45
2022-11-27T18:21:34.946Z,73.55
2022-11-27T18:29:38.540Z,96.45
2022-11-27T18:32:06.455Z,99.18
2022-11-27T18:34:33.616Z,87.25
2022-11-27T18:37:00.895Z,78.55
2022-11-27T18:39:28.346Z,67.25
2022-11-27T18:41:55.353Z,74.87
2022-11-27T18:44:22.668Z,65.70
2022-11-27T18:46:50.680Z,54.15
2022-11-27T18:49:18.253Z,57.62
2022-11-27T18:51:46.720Z,62.28
2022-11-27T18:54:14.005Z,56.72
2022-11-27T18:56:41.067Z,49.83
2022-11-27T18:59:09.087Z,48.50
2022-11-27T19:01:42.074Z,59.95
2022-11-27T19:04:11.030Z,44.33
2022-11-27T19:06:39.350Z,43.85
2022-11-27T19:09:06.497Z,53.90
2022-11-27T19:11:34.867Z,43.53
2022-11-27T19:14:03.711Z,44.80
2022-11-27T19:16:33.179Z,46.65
2022-11-27T19:19:02.186Z,37.20
2022-11-27T19:21:30.880Z,40.90
2022-11-27T19:24:01.539Z,47.67
2022-11-27T19:26:33.698Z,40.40
2022-11-27T19:29:04.060Z,43.90
2022-11-27T19:31:33.053Z,44.05
2022-11-27T19:34:02.122Z,42.22
2022-11-27T19:36:30.658Z,49.30
2022-11-27T19:39:10.789Z,41.70
2022-11-27T19:41:38.294Z,39.25
2022-11-27T19:44:06.128Z,36.92
2022-11-27T19:46:35.280Z,38.20
2022-11-27T19:49:08.259Z,36.17
2022-11-27T19:51:36.894Z,34.80
2022-11-27T19:54:09.875Z,41.13
2022-11-27T19:59:08.735Z,37.25
2022-11-27T20:01:37.523Z,42.92
2022-11-27T20:04:06.378Z,39.65
2022-11-27T20:06:33.774Z,31.00
2022-11-27T20:09:03.181Z,42.55
2022-11-27T20:11:34.867Z,47.53
2022-11-27T20:14:04.311Z,41.15
2022-11-27T20:16:35.696Z,41.97
2022-11-27T20:19:05.483Z,41.83
2022-11-27T20:21:33.406Z,28.83
2022-11-27T20:24:01.670Z,39.53
2022-11-27T20:26:30.460Z,46.28
2022-11-27T20:28:58.876Z,58.53
2022-11-27T20:31:31.728Z,54.13
2022-11-27T20:34:01.308Z,61.67
2022-11-27T20:36:30.032Z,53.78
2022-11-27T20:38:59.389Z,57.08
2022-11-27T20:41:27.759Z,62.35
2022-11-27T20:44:00.264Z,68.47
2022-11-27T20:46:28.553Z,48.05
2022-11-27T20:48:55.984Z,67.62
2022-11-27T20:51:28.706Z,56.00
2022-11-27T20:53:57.576Z,55.83
2022-11-27T20:56:46.303Z,56.55
2022-11-27T20:59:13.781Z,59.40
2022-11-27T21:01:44.574Z,47.33
2022-11-27T21:04:29.571Z,53.85
2022-11-27T21:06:57.633Z,51.00
2022-11-27T21:09:24.890Z,57.60
2022-11-27T21:11:51.910Z,56.85
2022-11-27T21:14:19.248Z,54.92
2022-11-27T21:16:48.399Z,56.10
2022-11-27T21:19:21.609Z,46.10
2022-11-27T21:21:50.583Z,54.60
2022-11-27T21:24:18.908Z,45.72
2022-11-27T21:26:47.029Z,53.25
2022-11-27T21:29:15.096Z,50.38
2022-11-27T21:31:46.428Z,52.97
2022-11-27T21:34:14.794Z,46.45
2022-11-27T21:36:42.114Z,53.78
2022-11-27T21:39:10.586Z,53.72
2022-11-27T21:41:37.959Z,53.92
2022-11-27T21:44:05.731Z,45.08
2022-11-27T21:46:33.483Z,50.53
2022-11-27T21:49:03.280Z,47.03
2022-11-27T21:51:30.817Z,46.22
2022-11-27T21:53:58.941Z,47.33
2022-11-27T21:56:28.485Z,43.35
2022-11-27T21:58:55.867Z,45.85
2022-11-27T22:01:25.339Z,49.28
2022-11-27T22:03:57.420Z,46.75
2022-11-27T22:06:27.058Z,41.17
2022-11-27T22:08:57.062Z,44.80
2022-11-27T22:11:27.764Z,44.38
2022-11-27T22:13:59.805Z,45.58
2022-11-27T22:16:29.905Z,45.08
2022-11-27T22:18:58.802Z,48.55
2022-11-27T22:21:27.451Z,47.60
2022-11-27T22:23:54.969Z,42.00
2022-11-27T22:26:23.971Z,43.03
2022-11-27T22:28:51.721Z,45.20
2022-11-27T22:31:20.341Z,49.90
2022-11-27T22:33:49.706Z,53.42
2022-11-27T22:36:19.403Z,45.60
2022-11-27T22:38:47.719Z,49.17
2022-11-27T22:41:16.236Z,41.60
2022-11-27T22:43:43.349Z,41.13
2022-11-27T22:46:16.275Z,48.45
2022-11-27T22:48:44.171Z,44.45
2022-11-27T22:51:11.699Z,42.62
2022-11-27T22:53:38.922Z,45.70
2022-11-27T22:56:08.470Z,46.92
2022-11-27T22:58:41.024Z,43.25
2022-11-27T23:01:13.169Z,45.50
2022-11-27T23:03:40.378Z,51.92
2022-11-27T23:06:12.110Z,46.47
2022-11-27T23:08:40.572Z,45.53
2022-11-27T23:11:09.111Z,41.85
2022-11-27T23:13:36.915Z,40.05
2022-11-27T23:16:06.686Z,46.10
2022-11-27T23:18:34.373Z,44.00
2022-11-27T23:21:09.386Z,44.58
2022-11-27T23:23:36.768Z,46.53
2022-11-27T23:26:18.087Z,47.33
2022-11-27T23:28:47.069Z,55.45
2022-11-27T23:31:29.616Z,46.03
2022-11-27T23:33:58.479Z,42.85
2022-11-27T23:36:25.818Z,50.03
2022-11-27T23:38:52.911Z,44.25
2022-11-27T23:41:23.401Z,42.53
2022-11-27T23:43:51.541Z,42.10
2022-11-27T23:46:20.378Z,50.90
2022-11-27T23:48:47.723Z,43.87
2022-11-27T23:51:19.248Z,46.85
2022-11-27T23:53:47.017Z,43.67
2022-11-27T23:56:17.338Z,40.72
2022-11-27T23:58:47.281Z,41.20
